Time;durP1;ratioP1;P1;durP2;ratioP2;P2;SDS_P1;SDS_P2;PMS_P1;PMS_P2;Temp;Humidity;BMP_temperature;BMP_pressure;BME280_temperature;BME280_humidity;BME280_pressure;Samples;Min_cycle;Max_cycle;Signal;HPM_P1;HPM_P2
2023/10/09 00:01:17;;;;;;;4.75;2.25;;;;;;;;;;4926159;29;20492;-62
2023/10/09 00:03:53;;;;;;;3.55;2.40;;;;;;;;;;4924783;29;20526;-62
2023/10/09 00:06:30;;;;;;;2.90;2.20;;;;;;;;;;4914732;29;20967;-62
2023/10/09 00:09:11;;;;;;;4.18;2.50;;;;;;;;;;4908372;29;20999;-62
2023/10/09 00:11:41;;;;;;;5.00;3.37;;;;;;;;;;4920921;29;20441;-62
2023/10/09 00:14:12;;;;;;;2.85;2.60;;;;;;;;;;4925151;29;20472;-62
2023/10/09 00:16:49;;;;;;;3.72;2.13;;;;;;;;;;4919336;29;20490;-62
2023/10/09 00:19:20;;;;;;;5.13;2.53;;;;;;;;;;4905737;29;20494;-62
2023/10/09 00:21:50;;;;;;;2.75;2.15;;;;;;;;;;4924553;29;20516;-62
2023/10/09 00:24:23;;;;;;;4.93;2.50;;;;;;;;;;4922011;29;20443;-63
2023/10/09 00:26:52;;;;;;;2.50;2.20;;;;;;;;;;4923213;29;21182;-62
2023/10/09 00:29:22;;;;;;;5.63;2.60;;;;;;;;;;4921341;29;20441;-62
2023/10/09 00:32:05;;;;;;;3.25;2.33;;;;;;;;;;4918481;29;20461;-62
2023/10/09 00:34:39;;;;;;;4.95;2.47;;;;;;;;;;4920315;29;20506;-62
2023/10/09 00:37:16;;;;;;;5.47;2.33;;;;;;;;;;4905671;29;20526;-62
2023/10/09 00:39:44;;;;;;;4.57;2.70;;;;;;;;;;4923849;29;20534;-62
2023/10/09 00:42:25;;;;;;;6.38;2.50;;;;;;;;;;4903891;29;21397;-62
2023/10/09 00:44:53;;;;;;;5.80;2.70;;;;;;;;;;4921571;29;20543;-62
2023/10/09 00:47:21;;;;;;;2.70;2.50;;;;;;;;;;4918644;29;20444;-62
2023/10/09 00:49:48;;;;;;;3.73;2.60;;;;;;;;;;4919993;29;20443;-63
2023/10/09 00:52:23;;;;;;;3.20;2.30;;;;;;;;;;4928674;29;20969;-63
2023/10/09 00:54:51;;;;;;;2.80;2.30;;;;;;;;;;4924297;29;20443;-63
2023/10/09 00:57:24;;;;;;;4.18;2.10;;;;;;;;;;4923965;29;20503;-62
2023/10/09 00:59:59;;;;;;;4.90;2.30;;;;;;;;;;4924842;29;20461;-62
2023/10/09 01:02:35;;;;;;;3.67;2.10;;;;;;;;;;4908934;29;20482;-62
2023/10/09 01:05:19;;;;;;;3.37;2.10;;;;;;;;;;4914911;29;20493;-62
2023/10/09 01:07:48;;;;;;;5.07;2.58;;;;;;;;;;4914140;29;20582;-62
2023/10/09 01:10:19;;;;;;;3.60;2.50;;;;;;;;;;4922165;29;20526;-63
2023/10/09 01:12:54;;;;;;;7.78;2.63;;;;;;;;;;4930504;29;20487;-62
2023/10/09 01:15:44;;;;;;;5.68;2.95;;;;;;;;;;4923833;29;20452;-63
2023/10/09 01:18:12;;;;;;;4.85;2.88;;;;;;;;;;4928478;29;20536;-63
2023/10/09 01:20:45;;;;;;;4.47;2.80;;;;;;;;;;4920568;29;20439;-63
2023/10/09 01:23:13;;;;;;;2.60;2.40;;;;;;;;;;4924477;29;20538;-63
2023/10/09 01:25:45;;;;;;;5.95;2.65;;;;;;;;;;4919087;29;20473;-63
2023/10/09 01:28:15;;;;;;;3.50;2.20;;;;;;;;;;4927554;29;20538;-63
2023/10/09 01:30:44;;;;;;;5.10;2.38;;;;;;;;;;4922013;29;20489;-63
2023/10/09 01:33:24;;;;;;;3.00;2.58;;;;;;;;;;4921727;29;20828;-63
2023/10/09 01:35:55;;;;;;;4.07;2.75;;;;;;;;;;4915274;29;20445;-63
2023/10/09 01:38:32;;;;;;;4.17;2.90;;;;;;;;;;4925315;29;20533;-63
2023/10/09 01:41:06;;;;;;;7.28;2.70;;;;;;;;;;4930200;29;20529;-63
2023/10/09 01:43:34;;;;;;;4.90;2.53;;;;;;;;;;4928560;29;20487;-62
2023/10/09 01:46:01;;;;;;;3.95;3.17;;;;;;;;;;4926641;29;20522;-62
2023/10/09 01:48:32;;;;;;;4.70;3.17;;;;;;;;;;4923661;29;20432;-62
2023/10/09 01:51:00;;;;;;;4.73;3.07;;;;;;;;;;4924121;29;20495;-62
2023/10/09 01:53:38;;;;;;;4.65;3.17;;;;;;;;;;4924652;29;20514;-63
2023/10/09 01:56:15;;;;;;;5.07;3.15;;;;;;;;;;4930986;29;20439;-63
2023/10/09 01:58:46;;;;;;;5.43;3.42;;;;;;;;;;4925981;29;20525;-63
2023/10/09 02:01:15;;;;;;;6.82;3.15;;;;;;;;;;4915424;29;20445;-63
2023/10/09 02:03:45;;;;;;;6.93;3.30;;;;;;;;;;4915350;29;20528;-63
2023/10/09 02:06:26;;;;;;;5.03;3.22;;;;;;;;;;4930250;29;20436;-63
2023/10/09 02:08:56;;;;;;;8.35;3.65;;;;;;;;;;4921120;29;20449;-62
2023/10/09 02:11:43;;;;;;;6.70;3.30;;;;;;;;;;4902589;29;20436;-63
2023/10/09 02:14:19;;;;;;;5.38;2.83;;;;;;;;;;4916801;29;20470;-63
2023/10/09 02:17:02;;;;;;;5.10;3.30;;;;;;;;;;4919307;29;20525;-63
2023/10/09 02:19:34;;;;;;;6.35;3.50;;;;;;;;;;4923143;29;20952;-63
2023/10/09 02:22:11;;;;;;;5.50;3.20;;;;;;;;;;4925828;29;20506;-62
2023/10/09 02:24:57;;;;;;;7.20;3.50;;;;;;;;;;4923609;29;20435;-62
2023/10/09 02:27:44;;;;;;;3.92;3.42;;;;;;;;;;4926525;29;20515;-62
2023/10/09 02:30:15;;;;;;;5.00;3.30;;;;;;;;;;4927753;29;22865;-62
2023/10/09 02:32:43;;;;;;;6.00;3.55;;;;;;;;;;4924949;29;20941;-63
2023/10/09 02:35:59;;;;;;;5.53;3.30;;;;;;;;;;4922709;29;20475;-63
2023/10/09 02:38:04;;;;;;;5.50;3.88;;;;;;;;;;4910608;29;20448;-62
2023/10/09 02:41:00;;;;;;;6.38;3.50;;;;;;;;;;4917084;29;21197;-63
2023/10/09 02:43:25;;;;;;;6.70;3.55;;;;;;;;;;4927284;29;20447;-63
2023/10/09 02:45:52;;;;;;;8.57;4.07;;;;;;;;;;4898439;29;20477;-63
2023/10/09 02:48:26;;;;;;;6.22;3.25;;;;;;;;;;4926061;29;20847;-63
2023/10/09 02:50:59;;;;;;;7.15;3.45;;;;;;;;;;4919470;29;20507;-63
2023/10/09 02:53:29;;;;;;;5.72;3.15;;;;;;;;;;4922549;29;20512;-63
2023/10/09 02:56:12;;;;;;;8.90;3.40;;;;;;;;;;4928671;29;20907;-63
2023/10/09 02:58:42;;;;;;;6.75;3.30;;;;;;;;;;4914700;29;20539;-63
2023/10/09 03:01:13;;;;;;;4.90;3.20;;;;;;;;;;4927177;29;20448;-63
2023/10/09 03:03:45;;;;;;;5.82;3.25;;;;;;;;;;4929499;29;20439;-63
2023/10/09 03:06:13;;;;;;;8.77;3.58;;;;;;;;;;4919789;29;20928;-63
2023/10/09 03:08:44;;;;;;;5.47;3.50;;;;;;;;;;4928500;29;20437;-63
2023/10/09 03:11:13;;;;;;;14.43;3.60;;;;;;;;;;4924579;29;20488;-63
2023/10/09 03:13:44;;;;;;;7.63;3.13;;;;;;;;;;4907795;29;20441;-74
2023/10/09 03:16:21;;;;;;;5.83;3.33;;;;;;;;;;4919721;29;20444;-74
2023/10/09 03:18:52;;;;;;;5.55;3.50;;;;;;;;;;4923836;29;20550;-75
2023/10/09 03:21:20;;;;;;;6.00;3.67;;;;;;;;;;4927678;29;20450;-74
2023/10/09 03:23:49;;;;;;;8.43;3.47;;;;;;;;;;4927520;29;21197;-75
2023/10/09 03:26:26;;;;;;;7.32;3.95;;;;;;;;;;4924852;29;20862;-73
2023/10/09 03:28:53;;;;;;;5.32;3.47;;;;;;;;;;4918880;29;20437;-73
2023/10/09 03:31:22;;;;;;;7.15;3.60;;;;;;;;;;4920117;29;20436;-73
2023/10/09 03:33:49;;;;;;;8.80;3.40;;;;;;;;;;4928962;29;20491;-73
2023/10/09 03:36:16;;;;;;;5.63;3.40;;;;;;;;;;4924867;29;20468;-73
2023/10/09 03:38:44;;;;;;;7.45;3.70;;;;;;;;;;4923386;29;20447;-73
2023/10/09 03:41:15;;;;;;;9.15;3.25;;;;;;;;;;4922147;29;21161;-74
2023/10/09 03:43:47;;;;;;;6.53;3.20;;;;;;;;;;4921988;29;20440;-73
2023/10/09 03:46:21;;;;;;;5.68;3.20;;;;;;;;;;4925333;29;20935;-73
2023/10/09 03:48:49;;;;;;;5.57;3.57;;;;;;;;;;4900271;29;20498;-73
2023/10/09 03:51:23;;;;;;;8.32;4.40;;;;;;;;;;4922041;29;20438;-74
2023/10/09 03:53:52;;;;;;;5.85;3.67;;;;;;;;;;4920494;29;20452;-74
2023/10/09 03:56:21;;;;;;;6.60;4.05;;;;;;;;;;4923073;29;20522;-74
2023/10/09 03:58:49;;;;;;;7.22;4.10;;;;;;;;;;4928033;29;20482;-73
2023/10/09 04:01:28;;;;;;;9.63;4.73;;;;;;;;;;4922209;29;20449;-75
2023/10/09 04:03:59;;;;;;;11.80;4.72;;;;;;;;;;4921672;29;21424;-74
2023/10/09 04:06:33;;;;;;;8.77;4.85;;;;;;;;;;4922053;29;20449;-73
2023/10/09 04:09:13;;;;;;;8.45;4.50;;;;;;;;;;4921855;29;20444;-73
2023/10/09 04:11:46;;;;;;;11.45;4.95;;;;;;;;;;4912046;29;20434;-73
2023/10/09 04:14:33;;;;;;;10.50;4.85;;;;;;;;;;4917998;29;20448;-73
2023/10/09 04:17:05;;;;;;;8.95;5.00;;;;;;;;;;4921116;29;20453;-73
2023/10/09 04:19:47;;;;;;;6.97;5.18;;;;;;;;;;4927746;29;20776;-74
2023/10/09 04:22:27;;;;;;;10.23;5.28;;;;;;;;;;4919379;29;20506;-73
2023/10/09 04:24:54;;;;;;;9.25;5.38;;;;;;;;;;4898737;29;20476;-73
2023/10/09 04:27:35;;;;;;;9.90;5.80;;;;;;;;;;4927006;29;20439;-73
2023/10/09 04:30:07;;;;;;;13.07;6.05;;;;;;;;;;4920040;29;21318;-73
2023/10/09 04:32:34;;;;;;;11.45;5.95;;;;;;;;;;4927360;29;20942;-73
2023/10/09 04:35:24;;;;;;;11.43;5.87;;;;;;;;;;4916969;29;20823;-73
2023/10/09 04:38:09;;;;;;;13.02;6.00;;;;;;;;;;4916675;29;20473;-73
2023/10/09 04:43:26;;;;;;;10.40;5.70;;;;;;;;;;4924789;29;20435;-74
2023/10/09 04:48:39;;;;;;;11.68;5.68;;;;;;;;;;4928853;29;20488;-73
2023/10/09 04:51:34;;;;;;;10.52;5.20;;;;;;;;;;4915050;29;20429;-73
2023/10/09 04:54:38;;;;;;;8.68;5.28;;;;;;;;;;4918645;29;20445;-72
2023/10/09 04:56:52;;;;;;;16.48;5.82;;;;;;;;;;4912618;29;20449;-73
2023/10/09 04:59:25;;;;;;;12.20;5.95;;;;;;;;;;4915846;29;20458;-73
2023/10/09 05:01:59;;;;;;;12.60;6.18;;;;;;;;;;4910746;29;20514;-73
2023/10/09 05:07:22;;;;;;;10.00;6.13;;;;;;;;;;4920974;29;20434;-73
2023/10/09 05:10:07;;;;;;;13.02;6.00;;;;;;;;;;4901650;29;20482;-73
2023/10/09 05:12:40;;;;;;;13.13;5.93;;;;;;;;;;4922211;29;20517;-72
2023/10/09 05:15:09;;;;;;;12.63;6.13;;;;;;;;;;4924594;29;20439;-73
2023/10/09 05:17:38;;;;;;;10.52;5.65;;;;;;;;;;4909349;29;20945;-73
2023/10/09 05:22:57;;;;;;;10.77;5.60;;;;;;;;;;4921366;29;21083;-72
2023/10/09 05:25:53;;;;;;;10.45;5.30;;;;;;;;;;4926162;29;20463;-73
2023/10/09 05:28:48;;;;;;;10.02;6.85;;;;;;;;;;4925813;29;20438;-73
2023/10/09 05:34:07;;;;;;;33.58;30.52;;;;;;;;;;4919042;29;20458;-72
2023/10/09 05:36:35;;;;;;;355.42;322.20;;;;;;;;;;4926771;29;20807;-73
2023/10/09 05:39:22;;;;;;;490.00;437.10;;;;;;;;;;4923966;29;20447;-73
2023/10/09 05:41:53;;;;;;;12.38;5.35;;;;;;;;;;4911761;29;20448;-74
2023/10/09 05:50:33;;;;;;;629.63;447.27;;;;;;;;;;4918935;29;20445;-74
2023/10/09 05:53:04;;;;;;;750.95;401.38;;;;;;;;;;4919801;29;20433;-74
2023/10/09 06:06:32;;;;;;;788.83;432.83;;;;;;;;;;4928851;29;20524;-73
2023/10/09 06:11:56;;;;;;;802.13;466.08;;;;;;;;;;4923254;29;20439;-74
2023/10/09 06:17:00;;;;;;;770.80;474.15;;;;;;;;;;4925769;29;20555;-74
2023/10/09 06:19:28;;;;;;;820.40;476.42;;;;;;;;;;4923992;29;20481;-73
2023/10/09 06:24:42;;;;;;;820.03;480.00;;;;;;;;;;4925522;29;20443;-73
2023/10/09 06:29:50;;;;;;;666.63;519.70;;;;;;;;;;4923889;29;20919;-74
2023/10/09 06:32:34;;;;;;;819.43;540.83;;;;;;;;;;4926569;29;20459;-74
2023/10/09 06:48:44;;;;;;;877.53;518.45;;;;;;;;;;4920805;29;20455;-74
2023/10/09 06:53:58;;;;;;;905.17;589.65;;;;;;;;;;4927315;29;20439;-72
2023/10/09 06:58:58;;;;;;;913.95;585.08;;;;;;;;;;4924643;29;20455;-74
2023/10/09 07:01:39;;;;;;;887.88;530.78;;;;;;;;;;4919851;29;20447;-73
2023/10/09 07:04:19;;;;;;;884.35;529.33;;;;;;;;;;4925309;29;20570;-73
2023/10/09 07:06:56;;;;;;;884.08;528.70;;;;;;;;;;4910619;29;20904;-73
2023/10/09 07:09:42;;;;;;;899.85;554.67;;;;;;;;;;4922035;29;20501;-73
2023/10/09 07:12:14;;;;;;;908.75;565.10;;;;;;;;;;4927136;29;21010;-73
2023/10/09 07:17:41;;;;;;;882.47;530.93;;;;;;;;;;4924803;29;20452;-74
2023/10/09 07:20:36;;;;;;;876.70;530.87;;;;;;;;;;4920581;29;20527;-74
2023/10/09 07:23:16;;;;;;;872.53;525.55;;;;;;;;;;4922339;29;20478;-74
2023/10/09 07:26:18;;;;;;;870.65;519.17;;;;;;;;;;4919744;29;20530;-74
2023/10/09 07:28:36;;;;;;;882.20;536.25;;;;;;;;;;4920398;29;20544;-74
2023/10/09 07:31:09;;;;;;;896.22;559.47;;;;;;;;;;4928858;29;20453;-74
2023/10/09 07:36:34;;;;;;;863.00;495.30;;;;;;;;;;4921736;29;20988;-74
2023/10/09 07:39:02;;;;;;;899.92;560.78;;;;;;;;;;4918665;29;21170;-73
2023/10/09 07:41:33;;;;;;;900.30;563.35;;;;;;;;;;4924356;29;20443;-74
2023/10/09 07:44:19;;;;;;;906.37;574.83;;;;;;;;;;4923760;29;20500;-73
2023/10/09 07:46:52;;;;;;;917.80;575.90;;;;;;;;;;4920088;29;20457;-74
2023/10/09 07:49:25;;;;;;;949.03;637.00;;;;;;;;;;4921768;29;20450;-73
2023/10/09 07:51:55;;;;;;;926.45;598.08;;;;;;;;;;4918474;29;20436;-73
2023/10/09 07:54:32;;;;;;;952.00;644.17;;;;;;;;;;4920583;29;20431;-73
2023/10/09 07:57:15;;;;;;;948.35;633.42;;;;;;;;;;4926219;29;20454;-74
2023/10/09 07:59:54;;;;;;;958.30;652.27;;;;;;;;;;4927765;29;20550;-74
2023/10/09 08:02:31;;;;;;;961.75;648.90;;;;;;;;;;4922985;29;20449;-75
2023/10/09 08:05:19;;;;;;;962.33;658.05;;;;;;;;;;4928669;29;20453;-74
2023/10/09 08:07:57;;;;;;;961.17;671.08;;;;;;;;;;4924003;29;20524;-73
2023/10/09 08:14:41;;;;;;;979.95;692.60;;;;;;;;;;4924077;29;20438;-74
2023/10/09 08:16:20;;;;;;;974.80;673.45;;;;;;;;;;4906225;29;20564;-73
2023/10/09 08:18:57;;;;;;;931.97;725.40;;;;;;;;;;4921259;29;20458;-73
2023/10/09 08:21:41;;;;;;;1010.70;739.90;;;;;;;;;;4920742;29;20437;-73
2023/10/09 08:24:35;;;;;;;999.70;739.72;;;;;;;;;;4924190;29;20768;-73
2023/10/09 08:27:46;;;;;;;994.78;718.15;;;;;;;;;;4929321;29;20435;-74
2023/10/09 08:29:47;;;;;;;992.73;708.67;;;;;;;;;;4927893;29;20435;-72
2023/10/09 08:32:38;;;;;;;965.72;673.22;;;;;;;;;;4920584;29;20449;-73
2023/10/09 08:35:29;;;;;;;960.57;652.80;;;;;;;;;;4927618;28;20536;-72
2023/10/09 08:37:58;;;;;;;935.42;624.83;;;;;;;;;;4926643;29;20489;-73
2023/10/09 08:40:42;;;;;;;934.63;623.95;;;;;;;;;;4927822;29;20459;-73
2023/10/09 08:43:16;;;;;;;943.67;633.13;;;;;;;;;;4924668;29;20443;-74
2023/10/09 08:45:53;;;;;;;940.28;631.30;;;;;;;;;;4919404;29;20441;-74
2023/10/09 08:48:21;;;;;;;945.28;642.60;;;;;;;;;;4905138;29;20441;-74
2023/10/09 08:50:49;;;;;;;963.03;663.35;;;;;;;;;;4919160;29;20443;-73
2023/10/09 08:53:17;;;;;;;967.42;683.53;;;;;;;;;;4921242;29;20448;-72
2023/10/09 08:55:46;;;;;;;956.38;654.22;;;;;;;;;;4921752;29;20431;-72
2023/10/09 08:58:36;;;;;;;973.87;684.13;;;;;;;;;;4927740;29;20554;-70
2023/10/09 09:01:04;;;;;;;947.35;647.28;;;;;;;;;;4918697;29;20468;-75
2023/10/09 09:03:38;;;;;;;962.58;667.90;;;;;;;;;;4925194;29;20477;-75
2023/10/09 09:06:05;;;;;;;982.55;708.75;;;;;;;;;;4918331;29;20535;-74
2023/10/09 09:08:36;;;;;;;973.08;717.75;;;;;;;;;;4926095;29;20446;-73
2023/10/09 09:13:49;;;;;;;977.90;691.30;;;;;;;;;;4920349;29;20445;-73
2023/10/09 09:16:20;;;;;;;960.17;669.80;;;;;;;;;;4922126;29;20447;-74
2023/10/09 09:19:00;;;;;;;949.60;657.50;;;;;;;;;;4918768;29;20557;-72
2023/10/09 09:21:28;;;;;;;913.13;610.03;;;;;;;;;;4921442;29;20466;-74
2023/10/09 09:24:07;;;;;;;951.10;657.97;;;;;;;;;;4927627;29;20536;-74
2023/10/09 09:26:37;;;;;;;933.33;635.60;;;;;;;;;;4925417;29;20902;-74
2023/10/09 09:29:05;;;;;;;940.83;643.60;;;;;;;;;;4930104;29;20463;-74
2023/10/09 09:31:41;;;;;;;919.65;616.97;;;;;;;;;;4926065;29;20443;-73
2023/10/09 09:34:17;;;;;;;909.45;604.55;;;;;;;;;;4919970;29;20546;-74
2023/10/09 09:36:53;;;;;;;926.15;626.30;;;;;;;;;;4919224;29;20449;-73
2023/10/09 09:39:27;;;;;;;920.00;617.30;;;;;;;;;;4932569;29;20439;-73
2023/10/09 09:42:13;;;;;;;920.80;619.83;;;;;;;;;;4916929;29;20535;-74
2023/10/09 09:44:43;;;;;;;929.88;632.33;;;;;;;;;;4931858;29;20449;-74
2023/10/09 09:47:23;;;;;;;950.53;668.90;;;;;;;;;;4928693;29;20538;-72
2023/10/09 09:49:52;;;;;;;960.95;687.33;;;;;;;;;;4923583;29;20470;-70
2023/10/09 09:52:24;;;;;;;999.35;742.00;;;;;;;;;;4930155;29;20827;-74
2023/10/09 09:54:52;;;;;;;1000.72;754.20;;;;;;;;;;4931087;29;20534;-74
2023/10/09 09:57:25;;;;;;;997.08;737.95;;;;;;;;;;4927767;29;20445;-72
2023/10/09 09:59:55;;;;;;;1005.85;756.03;;;;;;;;;;4922536;29;20528;-73
2023/10/09 10:02:36;;;;;;;1020.00;778.38;;;;;;;;;;4918757;29;20496;-72
2023/10/09 10:05:07;;;;;;;1018.85;776.72;;;;;;;;;;4932802;29;20439;-72
2023/10/09 10:07:42;;;;;;;1016.88;779.17;;;;;;;;;;4928592;29;20445;-74
2023/10/09 10:10:29;;;;;;;1017.33;782.55;;;;;;;;;;4923524;29;20504;-73
2023/10/09 10:13:01;;;;;;;1021.17;785.03;;;;;;;;;;4927166;29;21096;-73
2023/10/09 10:15:57;;;;;;;1012.47;772.60;;;;;;;;;;4928039;29;20551;-71
2023/10/09 10:18:32;;;;;;;1008.53;759.58;;;;;;;;;;4825938;29;20448;-74
2023/10/09 10:21:33;;;;;;;1021.42;782.70;;;;;;;;;;4836502;29;20535;-73
2023/10/09 10:24:05;;;;;;;1017.03;804.13;;;;;;;;;;4836032;29;20864;-72
2023/10/09 10:26:43;;;;;;;995.20;811.60;;;;;;;;;;4835180;29;20507;-74
2023/10/09 10:29:23;;;;;;;898.58;808.20;;;;;;;;;;4833636;29;20447;-74
2023/10/09 10:32:01;;;;;;;900.47;802.30;;;;;;;;;;4834244;29;20887;-74
2023/10/09 10:34:54;;;;;;;1023.60;790.07;;;;;;;;;;4831471;29;20518;-74
2023/10/09 10:37:44;;;;;;;1010.60;806.08;;;;;;;;;;4840704;29;20534;-74
2023/10/09 10:40:37;;;;;;;965.30;817.72;;;;;;;;;;4826377;29;20554;-73
2023/10/09 10:43:13;;;;;;;1012.53;816.58;;;;;;;;;;4834821;29;20458;-74
2023/10/09 10:45:44;;;;;;;941.58;820.08;;;;;;;;;;4829251;29;20452;-73
2023/10/09 10:48:22;;;;;;;1008.90;805.78;;;;;;;;;;4831877;29;20948;-75
2023/10/09 10:50:57;;;;;;;945.33;825.85;;;;;;;;;;4831685;29;20624;-72
2023/10/09 10:53:34;;;;;;;1003.78;822.35;;;;;;;;;;4836057;29;20468;-73
2023/10/09 10:58:54;;;;;;;921.47;826.70;;;;;;;;;;4930656;29;20997;-73
2023/10/09 11:01:25;;;;;;;924.15;826.58;;;;;;;;;;4919686;29;20911;-74
2023/10/09 11:03:59;;;;;;;1012.25;824.22;;;;;;;;;;4924293;29;20441;-72
2023/10/09 11:06:36;;;;;;;1043.25;845.88;;;;;;;;;;4933090;29;20534;-70
2023/10/09 11:09:23;;;;;;;979.38;840.42;;;;;;;;;;4927979;29;20528;-72
2023/10/09 11:11:55;;;;;;;995.20;838.03;;;;;;;;;;4912877;29;20445;-71
2023/10/09 11:14:42;;;;;;;1038.03;834.73;;;;;;;;;;4926171;29;20519;-74
2023/10/09 11:17:23;;;;;;;1038.38;838.88;;;;;;;;;;4923941;29;20423;-69
2023/10/09 11:19:52;;;;;;;1032.75;834.78;;;;;;;;;;4915896;29;21003;-75
2023/10/09 11:22:36;;;;;;;1042.90;857.17;;;;;;;;;;4923337;29;20455;-73
2023/10/09 11:25:12;;;;;;;1041.10;850.08;;;;;;;;;;4921953;29;20520;-73
2023/10/09 11:27:50;;;;;;;1033.38;846.67;;;;;;;;;;4925069;29;20543;-72
2023/10/09 11:30:32;;;;;;;1054.32;874.70;;;;;;;;;;4922490;29;21087;-73
2023/10/09 11:33:07;;;;;;;1049.00;889.88;;;;;;;;;;4927290;29;20799;-71
2023/10/09 11:35:37;;;;;;;1064.57;902.33;;;;;;;;;;4922704;29;20865;-74
2023/10/09 11:38:20;;;;;;;1057.07;903.45;;;;;;;;;;4928400;29;20443;-74
2023/10/09 11:43:51;;;;;;;1075.93;929.75;;;;;;;;;;4924157;29;20501;-72
2023/10/09 11:46:36;;;;;;;1074.38;928.88;;;;;;;;;;4921604;29;20897;-72
2023/10/09 11:54:33;;;;;;;1074.45;940.13;;;;;;;;;;4923952;29;20451;-74
2023/10/09 11:57:01;;;;;;;1084.43;949.22;;;;;;;;;;4926732;29;20439;-74
2023/10/09 11:59:37;;;;;;;1078.13;940.20;;;;;;;;;;4917682;29;20439;-72
2023/10/09 12:02:06;;;;;;;1056.70;939.45;;;;;;;;;;4914552;29;21014;-72
2023/10/09 12:04:34;;;;;;;1058.80;944.33;;;;;;;;;;4921409;29;20439;-72
2023/10/09 12:07:09;;;;;;;1083.10;960.60;;;;;;;;;;4929581;29;20458;-71
2023/10/09 12:09:45;;;;;;;1078.73;974.27;;;;;;;;;;4905915;29;20527;-72
2023/10/09 12:12:12;;;;;;;1074.07;977.50;;;;;;;;;;4919270;29;20987;-71
2023/10/09 12:14:39;;;;;;;1072.32;979.83;;;;;;;;;;4918326;29;20628;-71
2023/10/09 12:17:09;;;;;;;1049.78;959.63;;;;;;;;;;4915600;29;20435;-72
2023/10/09 12:19:39;;;;;;;1079.22;976.35;;;;;;;;;;4930289;29;21054;-71
2023/10/09 12:22:15;;;;;;;1061.72;968.70;;;;;;;;;;4928259;29;20928;-71
2023/10/09 12:24:46;;;;;;;1114.75;994.85;;;;;;;;;;4911018;29;20447;-71
2023/10/09 12:27:13;;;;;;;1107.05;986.85;;;;;;;;;;4920669;29;20555;-74
2023/10/09 12:29:44;;;;;;;1099.68;999.90;;;;;;;;;;4925238;29;20435;-73
2023/10/09 12:32:20;;;;;;;1057.13;971.20;;;;;;;;;;4926520;29;20454;-67
2023/10/09 12:34:50;;;;;;;831.92;764.47;;;;;;;;;;4912894;29;20476;-71
2023/10/09 12:37:20;;;;;;;1087.55;995.65;;;;;;;;;;4922028;29;20443;-71
2023/10/09 12:39:48;;;;;;;1057.95;970.38;;;;;;;;;;4920452;29;20459;-69
2023/10/09 12:42:16;;;;;;;1070.18;965.55;;;;;;;;;;4918568;29;20572;-71
2023/10/09 12:44:44;;;;;;;1082.45;947.22;;;;;;;;;;4920513;29;20490;-73
2023/10/09 12:47:13;;;;;;;1067.88;963.63;;;;;;;;;;4921643;29;20930;-73
2023/10/09 12:49:43;;;;;;;1029.20;945.50;;;;;;;;;;4920038;29;20445;-72
2023/10/09 12:52:17;;;;;;;1012.50;930.97;;;;;;;;;;4920345;29;20447;-74
2023/10/09 12:54:46;;;;;;;1091.35;989.80;;;;;;;;;;4919806;29;20435;-72
2023/10/09 12:57:16;;;;;;;1089.25;981.63;;;;;;;;;;4915460;29;20447;-74
2023/10/09 12:59:45;;;;;;;1111.45;995.65;;;;;;;;;;4929383;29;20431;-72
2023/10/09 13:02:30;;;;;;;1102.00;999.90;;;;;;;;;;4927717;29;20443;-71
2023/10/09 13:05:00;;;;;;;1114.72;999.90;;;;;;;;;;4918685;29;20538;-72
2023/10/09 13:07:30;;;;;;;1069.72;980.45;;;;;;;;;;4916764;29;20894;-73
2023/10/09 13:10:12;;;;;;;1115.18;999.90;;;;;;;;;;4922017;29;20436;-72
2023/10/09 13:12:42;;;;;;;1166.27;999.90;;;;;;;;;;4909453;29;20467;-71
2023/10/09 13:15:12;;;;;;;1177.00;999.90;;;;;;;;;;4922610;29;20440;-73
2023/10/09 13:17:39;;;;;;;1147.35;999.90;;;;;;;;;;4914976;29;20927;-72
2023/10/09 13:20:12;;;;;;;1117.47;999.90;;;;;;;;;;4920521;29;20437;-72
2023/10/09 13:22:41;;;;;;;1106.35;999.90;;;;;;;;;;4916415;29;20439;-73
2023/10/09 13:25:24;;;;;;;970.88;893.88;;;;;;;;;;4917977;29;20522;-72
2023/10/09 13:28:03;;;;;;;1149.47;999.90;;;;;;;;;;4910413;29;20444;-72
2023/10/09 13:30:39;;;;;;;1050.35;967.40;;;;;;;;;;4918518;29;20431;-73
2023/10/09 13:33:07;;;;;;;683.13;624.40;;;;;;;;;;4925210;29;20443;-72
2023/10/09 13:35:48;;;;;;;912.03;838.70;;;;;;;;;;4923870;29;20458;-74
2023/10/09 13:38:17;;;;;;;1106.35;999.90;;;;;;;;;;4914832;29;20522;-73
2023/10/09 13:40:44;;;;;;;1152.45;999.90;;;;;;;;;;4920416;29;20527;-73
2023/10/09 13:43:16;;;;;;;1176.80;999.90;;;;;;;;;;4917513;29;20455;-72
2023/10/09 13:45:49;;;;;;;1139.47;999.90;;;;;;;;;;4903672;29;20942;-72
2023/10/09 13:48:17;;;;;;;1138.22;999.90;;;;;;;;;;4919900;29;20450;-73
2023/10/09 13:50:45;;;;;;;1198.15;999.90;;;;;;;;;;4924021;29;20448;-73
2023/10/09 13:53:14;;;;;;;1129.50;999.90;;;;;;;;;;4922274;29;21044;-72
2023/10/09 13:55:47;;;;;;;1165.22;999.90;;;;;;;;;;4917907;29;20535;-72
2023/10/09 13:58:20;;;;;;;1146.68;999.90;;;;;;;;;;4919895;29;20908;-72
2023/10/09 14:00:49;;;;;;;1131.03;999.90;;;;;;;;;;4915772;29;20924;-72
2023/10/09 14:03:19;;;;;;;1171.73;999.90;;;;;;;;;;4918324;29;20966;-72
2023/10/09 14:05:56;;;;;;;1158.53;999.90;;;;;;;;;;4923196;29;20449;-73
2023/10/09 14:08:26;;;;;;;1144.03;999.90;;;;;;;;;;4921388;29;20983;-73
2023/10/09 14:10:54;;;;;;;1159.80;999.90;;;;;;;;;;4922918;29;20518;-72
2023/10/09 14:13:28;;;;;;;1160.05;999.90;;;;;;;;;;4919367;29;20902;-73
2023/10/09 14:15:58;;;;;;;970.72;893.53;;;;;;;;;;4922858;29;20906;-71
2023/10/09 14:18:29;;;;;;;866.67;796.30;;;;;;;;;;4922943;29;20439;-72
2023/10/09 14:21:04;;;;;;;456.80;416.92;;;;;;;;;;4923903;29;20441;-72
2023/10/09 14:23:34;;;;;;;501.08;456.92;;;;;;;;;;4920499;29;20471;-73
2023/10/09 14:26:02;;;;;;;350.20;322.05;;;;;;;;;;4922915;29;20459;-72
2023/10/09 14:28:29;;;;;;;200.25;185.32;;;;;;;;;;4921970;29;20439;-73
2023/10/09 14:31:00;;;;;;;107.65;99.53;;;;;;;;;;4929987;29;20960;-73
2023/10/09 14:33:34;;;;;;;606.28;556.95;;;;;;;;;;4921173;29;20443;-72
2023/10/09 14:36:05;;;;;;;723.45;662.58;;;;;;;;;;4923723;29;20547;-73
2023/10/09 14:38:38;;;;;;;190.50;175.30;;;;;;;;;;4914149;29;20854;-73
2023/10/09 14:41:11;;;;;;;255.50;234.45;;;;;;;;;;4925840;29;20524;-72
2023/10/09 14:43:39;;;;;;;984.67;905.42;;;;;;;;;;4924157;29;20539;-73
2023/10/09 14:46:10;;;;;;;579.90;531.78;;;;;;;;;;4921403;29;20437;-74
2023/10/09 14:48:41;;;;;;;860.13;790.08;;;;;;;;;;4917948;29;20441;-73
2023/10/09 14:51:10;;;;;;;1082.53;985.58;;;;;;;;;;4913580;29;20494;-73
2023/10/09 14:53:37;;;;;;;1077.35;986.20;;;;;;;;;;4914661;29;20504;-73
2023/10/09 14:56:08;;;;;;;1012.17;931.70;;;;;;;;;;4926399;29;20606;-73
2023/10/09 14:58:37;;;;;;;688.35;630.38;;;;;;;;;;4921044;29;20452;-72
2023/10/09 15:01:18;;;;;;;991.03;907.77;;;;;;;;;;4922781;29;20449;-73
2023/10/09 15:03:49;;;;;;;530.13;483.13;;;;;;;;;;4909834;29;20831;-74
2023/10/09 15:06:17;;;;;;;106.85;99.05;;;;;;;;;;4916045;29;20527;-72
2023/10/09 15:08:49;;;;;;;466.70;425.40;;;;;;;;;;4923060;29;20554;-72
2023/10/09 15:11:16;;;;;;;290.75;266.95;;;;;;;;;;4920028;29;20538;-72
2023/10/09 15:13:43;;;;;;;691.60;632.55;;;;;;;;;;4923528;29;20445;-73
2023/10/09 15:16:11;;;;;;;533.97;487.35;;;;;;;;;;4926192;29;20898;-72
2023/10/09 15:18:41;;;;;;;429.30;391.75;;;;;;;;;;4918856;29;20445;-73
2023/10/09 15:21:11;;;;;;;617.75;564.28;;;;;;;;;;4925321;29;20969;-73
2023/10/09 15:23:39;;;;;;;297.70;273.55;;;;;;;;;;4918559;29;20965;-73
2023/10/09 15:26:06;;;;;;;597.17;545.15;;;;;;;;;;4918396;29;20535;-73
2023/10/09 15:28:34;;;;;;;894.27;821.10;;;;;;;;;;4915889;29;20896;-73
2023/10/09 15:31:03;;;;;;;55.05;50.75;;;;;;;;;;4909533;29;21021;-72
2023/10/09 15:33:34;;;;;;;42.70;39.38;;;;;;;;;;4921531;29;20439;-73
2023/10/09 15:36:11;;;;;;;118.85;110.07;;;;;;;;;;4921292;29;20535;-72
2023/10/09 15:38:38;;;;;;;123.15;114.47;;;;;;;;;;4922992;29;20483;-72
2023/10/09 15:41:07;;;;;;;125.15;116.07;;;;;;;;;;4922409;29;20502;-72
2023/10/09 15:43:39;;;;;;;138.73;128.98;;;;;;;;;;4923240;29;20435;-72
2023/10/09 15:46:14;;;;;;;171.57;158.27;;;;;;;;;;4925104;29;20930;-72
2023/10/09 15:48:45;;;;;;;24.67;22.77;;;;;;;;;;4913448;29;20448;-71
2023/10/09 15:51:14;;;;;;;267.80;246.20;;;;;;;;;;4923790;29;20508;-71
2023/10/09 15:53:45;;;;;;;1007.40;906.85;;;;;;;;;;4918709;29;20441;-73
2023/10/09 15:56:13;;;;;;;1008.72;907.97;;;;;;;;;;4928820;29;20432;-72
2023/10/09 15:58:42;;;;;;;975.90;887.33;;;;;;;;;;4924258;29;20448;-72
2023/10/09 16:01:18;;;;;;;964.00;880.35;;;;;;;;;;4921782;29;20440;-73
2023/10/09 16:03:49;;;;;;;976.97;884.17;;;;;;;;;;4918240;29;20932;-72
2023/10/09 16:06:18;;;;;;;983.92;880.67;;;;;;;;;;4923605;29;20443;-72
2023/10/09 16:08:51;;;;;;;979.70;879.30;;;;;;;;;;4907143;29;20826;-73